createdAt,value
2018-06-30T00:03:17.260Z,4.80
2018-06-30T00:07:11.213Z,4.83
2018-06-30T00:11:05.090Z,4.83
2018-06-30T00:14:59.025Z,4.70
2018-06-30T00:18:52.987Z,5.07
2018-06-30T00:22:46.911Z,4.90
2018-06-30T00:26:40.808Z,4.90
2018-06-30T00:30:34.721Z,5.63
2018-06-30T00:34:28.693Z,6.40
2018-06-30T00:38:22.628Z,5.43
2018-06-30T00:42:16.553Z,6.13
2018-06-30T00:46:10.514Z,5.95
2018-06-30T00:50:04.690Z,5.63
2018-06-30T00:53:58.690Z,5.43
2018-06-30T00:57:52.626Z,6.40
2018-06-30T01:01:46.074Z,6.33
2018-06-30T01:05:39.979Z,6.10
2018-06-30T01:09:33.949Z,6.20
2018-06-30T01:13:27.934Z,6.20
2018-06-30T01:17:21.933Z,6.63
2018-06-30T01:21:15.904Z,6.33
2018-06-30T01:25:09.885Z,6.40
2018-06-30T01:29:03.843Z,6.73
2018-06-30T01:32:57.759Z,6.43
2018-06-30T01:36:51.945Z,6.90
2018-06-30T01:40:45.914Z,6.53
2018-06-30T01:44:39.902Z,7.07
2018-06-30T01:48:33.871Z,7.47
2018-06-30T01:52:27.835Z,7.37
2018-06-30T01:56:21.739Z,7.40
2018-06-30T02:00:15.791Z,7.80
2018-06-30T02:04:09.755Z,8.43
2018-06-30T02:08:03.673Z,8.83
2018-06-30T02:11:57.578Z,8.77
2018-06-30T02:15:51.552Z,9.13
2018-06-30T02:19:45.575Z,8.03
2018-06-30T02:23:39.535Z,8.40
2018-06-30T02:27:33.486Z,8.37
2018-06-30T02:31:27.731Z,8.23
2018-06-30T02:35:21.631Z,8.57
2018-06-30T02:39:15.616Z,8.63
2018-06-30T02:43:09.543Z,8.60
2018-06-30T02:47:03.468Z,8.57
2018-06-30T02:50:57.441Z,8.30
2018-06-30T02:54:51.410Z,9.07
2018-06-30T02:58:45.455Z,8.77
2018-06-30T03:02:39.547Z,9.00
2018-06-30T03:06:34.637Z,9.30
2018-06-30T03:10:28.602Z,9.63
2018-06-30T03:14:22.560Z,9.27
2018-06-30T03:18:16.516Z,9.57
2018-06-30T03:22:10.457Z,9.27
2018-06-30T03:26:04.390Z,9.93
2018-06-30T03:29:58.345Z,9.77
2018-06-30T03:33:52.350Z,10.10
2018-06-30T03:37:46.392Z,9.70
2018-06-30T03:41:40.290Z,9.47
2018-06-30T03:45:34.176Z,10.20
2018-06-30T03:49:28.093Z,10.43
2018-06-30T03:53:22.124Z,10.83
2018-06-30T03:57:15.710Z,10.23
2018-06-30T04:01:09.133Z,10.53
2018-06-30T04:05:03.090Z,10.97
2018-06-30T04:08:57.508Z,11.37
2018-06-30T04:12:51.615Z,11.50
2018-06-30T04:16:45.533Z,11.30
2018-06-30T04:20:39.453Z,9.77
2018-06-30T04:24:33.413Z,11.43
2018-06-30T04:28:27.299Z,10.87
2018-06-30T04:32:21.240Z,10.87
2018-06-30T04:36:15.236Z,11.57
2018-06-30T04:40:09.146Z,10.38
2018-06-30T04:44:03.069Z,9.73
2018-06-30T04:47:57.039Z,9.30
2018-06-30T04:51:51.005Z,7.67
2018-06-30T04:55:44.897Z,8.93
2018-06-30T04:59:38.909Z,7.65
2018-06-30T05:03:32.334Z,7.50
2018-06-30T05:07:26.338Z,8.78
2018-06-30T05:11:20.324Z,8.85
2018-06-30T05:15:14.337Z,8.53
2018-06-30T05:19:08.352Z,9.43
2018-06-30T05:23:02.004Z,10.47
2018-06-30T05:26:55.817Z,9.70
2018-06-30T05:30:49.789Z,10.70
2018-06-30T05:34:43.919Z,10.63
2018-06-30T05:38:37.829Z,12.13
2018-06-30T05:42:31.874Z,11.77
2018-06-30T05:46:25.899Z,11.83
2018-06-30T05:50:19.803Z,10.60
2018-06-30T05:54:13.987Z,10.78
2018-06-30T05:58:07.869Z,10.60
2018-06-30T06:02:01.797Z,12.40
2018-06-30T06:05:55.756Z,10.53
2018-06-30T06:09:49.144Z,9.53
2018-06-30T06:13:43.138Z,10.67
2018-06-30T06:17:37.052Z,10.33
2018-06-30T06:21:30.991Z,9.70
2018-06-30T06:25:24.947Z,9.17
2018-06-30T06:29:18.938Z,8.17
2018-06-30T06:33:12.875Z,8.38
2018-06-30T06:37:06.797Z,8.43
2018-06-30T06:41:00.905Z,8.03
2018-06-30T06:44:55.230Z,7.87
2018-06-30T06:48:49.118Z,7.40
2018-06-30T06:52:43.052Z,8.57
2018-06-30T06:56:36.972Z,8.43
2018-06-30T07:00:30.888Z,6.97
2018-06-30T07:04:24.800Z,8.73
2018-06-30T07:08:18.724Z,7.00
2018-06-30T07:12:12.615Z,7.47
2018-06-30T07:16:07.001Z,7.30
2018-06-30T07:20:00.899Z,7.90
2018-06-30T07:23:54.918Z,7.60
2018-06-30T07:27:49.149Z,7.70
2018-06-30T07:31:43.133Z,7.00
2018-06-30T07:35:37.167Z,6.73
2018-06-30T07:39:31.128Z,6.70
2018-06-30T07:43:25.281Z,6.67
2018-06-30T07:47:19.293Z,6.63
2018-06-30T07:51:13.172Z,6.03
2018-06-30T07:55:07.099Z,6.77
2018-06-30T07:59:01.257Z,5.73
2018-06-30T08:02:54.653Z,5.80
2018-06-30T08:06:50.703Z,5.77
2018-06-30T08:10:44.639Z,5.50
2018-06-30T08:14:38.773Z,6.03
2018-06-30T08:18:33.304Z,5.40
2018-06-30T08:22:28.052Z,5.23
2018-06-30T08:26:22.164Z,4.37
2018-06-30T08:30:16.113Z,6.60
2018-06-30T08:34:10.835Z,4.50
2018-06-30T08:38:04.227Z,5.13
2018-06-30T08:41:57.426Z,4.60
2018-06-30T08:45:51.396Z,4.17
2018-06-30T08:49:45.349Z,3.83
2018-06-30T08:53:40.083Z,3.60
2018-06-30T08:57:34.162Z,3.60
2018-06-30T09:01:26.680Z,3.67
2018-06-30T09:05:20.525Z,3.80
2018-06-30T09:09:14.061Z,3.00
2018-06-30T09:13:08.029Z,3.90
2018-06-30T09:17:02.021Z,2.97
2018-06-30T09:20:55.929Z,3.70
2018-06-30T09:24:50.340Z,3.33
2018-06-30T09:28:44.427Z,3.43
2018-06-30T09:32:38.803Z,2.90
2018-06-30T09:36:32.952Z,3.27
2018-06-30T09:40:27.549Z,2.80
2018-06-30T09:44:21.569Z,3.23
2018-06-30T09:48:18.911Z,3.00
2018-06-30T09:52:16.021Z,2.87
2018-06-30T09:56:10.889Z,2.80
2018-06-30T10:00:06.018Z,3.37
2018-06-30T10:04:00.283Z,2.97
2018-06-30T10:07:54.257Z,2.93
2018-06-30T10:11:48.032Z,2.97
2018-06-30T10:15:41.964Z,2.57
2018-06-30T10:19:35.999Z,2.40
2018-06-30T10:23:29.943Z,3.20
2018-06-30T10:27:23.929Z,2.98
2018-06-30T10:35:19.108Z,2.87
2018-06-30T10:39:13.198Z,2.87
2018-06-30T10:43:07.115Z,3.20
2018-06-30T10:47:01.958Z,3.07
2018-06-30T10:50:56.107Z,2.37
2018-06-30T10:54:50.195Z,2.37
2018-06-30T10:58:44.207Z,3.00
2018-06-30T11:02:38.155Z,2.60
2018-06-30T11:06:32.320Z,2.53
2018-06-30T11:10:25.805Z,2.40
2018-06-30T11:14:19.923Z,1.90
2018-06-30T11:18:14.008Z,2.30
2018-06-30T11:22:08.050Z,2.90
2018-06-30T11:26:02.067Z,2.63
2018-06-30T11:29:56.109Z,3.10
2018-06-30T11:33:50.226Z,3.20
2018-06-30T11:37:44.408Z,3.00
2018-06-30T11:41:38.394Z,2.53
2018-06-30T11:45:32.711Z,2.10
2018-06-30T11:49:26.895Z,2.45
2018-06-30T11:53:21.045Z,1.87
2018-06-30T11:57:16.074Z,1.67
2018-06-30T12:01:09.491Z,2.70
2018-06-30T12:05:03.488Z,3.20
2018-06-30T12:08:57.449Z,4.43
2018-06-30T12:12:58.068Z,4.80
2018-06-30T12:16:51.818Z,5.50
2018-06-30T12:20:45.644Z,4.70
2018-06-30T12:24:39.496Z,3.87
2018-06-30T12:28:33.455Z,3.93
2018-06-30T12:32:28.402Z,3.30
2018-06-30T12:36:22.486Z,3.10
2018-06-30T12:40:16.504Z,2.70
2018-06-30T12:44:10.552Z,2.87
2018-06-30T12:48:04.505Z,2.10
2018-06-30T12:51:58.592Z,1.40
2018-06-30T12:55:52.636Z,1.60
2018-06-30T12:59:46.154Z,1.10
2018-06-30T13:03:40.259Z,1.40
2018-06-30T13:08:27.203Z,1.90
2018-06-30T13:12:21.631Z,1.50
2018-06-30T13:16:15.623Z,1.87
2018-06-30T13:20:09.850Z,1.30
2018-06-30T13:24:04.472Z,2.62
2018-06-30T13:27:58.704Z,1.57
2018-06-30T13:31:54.322Z,1.50
2018-06-30T13:35:48.440Z,1.62
2018-06-30T13:39:42.474Z,1.63
2018-06-30T13:43:38.371Z,1.50
2018-06-30T13:47:32.732Z,2.42
2018-06-30T13:51:26.857Z,2.27
2018-06-30T13:55:23.424Z,1.98
2018-06-30T13:59:19.974Z,1.62
2018-06-30T14:03:14.646Z,1.80
2018-06-30T14:07:08.905Z,1.32
2018-06-30T14:11:03.479Z,1.62
2018-06-30T14:14:58.626Z,1.60
2018-06-30T14:18:53.573Z,1.82
2018-06-30T14:22:48.443Z,2.00
2018-06-30T14:26:42.581Z,1.60
2018-06-30T14:30:37.287Z,1.60
2018-06-30T14:34:32.312Z,1.35
2018-06-30T14:38:26.470Z,1.40
2018-06-30T14:42:20.672Z,1.50
2018-06-30T14:46:14.643Z,1.70
2018-06-30T14:50:08.612Z,2.17
2018-06-30T14:54:02.885Z,2.17
2018-06-30T14:57:57.017Z,2.02
2018-06-30T15:01:51.144Z,1.85
2018-06-30T15:05:44.773Z,1.90
2018-06-30T15:09:39.027Z,1.95
2018-06-30T15:13:33.035Z,1.95
2018-06-30T15:17:27.160Z,1.55
2018-06-30T15:21:21.158Z,1.72
2018-06-30T15:25:15.162Z,1.67
2018-06-30T15:29:09.348Z,1.33
2018-06-30T15:33:08.222Z,1.60
2018-06-30T15:37:02.303Z,1.80
2018-06-30T15:40:56.927Z,1.47
2018-06-30T15:44:51.588Z,1.80
2018-06-30T15:48:45.858Z,1.30
2018-06-30T15:52:40.342Z,1.60
2018-06-30T15:56:37.306Z,1.65
2018-06-30T16:10:20.998Z,1.50
2018-06-30T16:14:15.038Z,1.20
2018-06-30T16:18:09.157Z,1.02
2018-06-30T16:22:15.028Z,1.32
2018-06-30T16:26:09.770Z,1.27
2018-06-30T16:30:03.808Z,1.30
2018-06-30T16:34:02.869Z,1.10
2018-06-30T16:37:56.829Z,0.90
2018-06-30T16:42:05.904Z,1.20
2018-06-30T16:46:05.526Z,1.12
2018-06-30T16:50:00.442Z,1.10
2018-06-30T16:53:54.350Z,1.50
2018-06-30T16:57:48.376Z,1.52
2018-06-30T17:01:42.522Z,1.70
2018-06-30T17:05:37.206Z,1.30
2018-06-30T17:09:32.647Z,1.90
2018-06-30T17:13:27.309Z,0.95
2018-06-30T17:17:21.250Z,0.93
2018-06-30T17:21:15.305Z,1.42
2018-06-30T17:25:09.778Z,1.90
2018-06-30T17:29:03.879Z,1.80
2018-06-30T17:32:58.293Z,1.47
2018-06-30T17:36:52.257Z,1.35
2018-06-30T17:40:48.088Z,1.40
2018-06-30T17:44:45.264Z,1.36
2018-06-30T17:48:40.872Z,1.20
2018-06-30T17:52:37.398Z,1.25
2018-06-30T17:56:31.530Z,1.37
2018-06-30T18:00:25.006Z,1.27
2018-06-30T18:04:18.992Z,1.20
2018-06-30T18:08:13.717Z,1.30
2018-06-30T18:12:07.549Z,1.50
2018-06-30T18:16:01.958Z,1.23
2018-06-30T18:19:56.951Z,1.37
2018-06-30T18:23:51.482Z,1.30
2018-06-30T18:27:45.493Z,1.40
2018-06-30T18:31:41.173Z,1.40
2018-06-30T18:35:38.596Z,1.40
2018-06-30T18:39:34.972Z,1.37
2018-06-30T18:43:29.334Z,1.20
2018-06-30T18:47:23.763Z,1.07
2018-06-30T18:51:23.964Z,1.67
2018-06-30T18:55:18.405Z,0.93
2018-06-30T18:59:15.168Z,1.17
2018-06-30T19:03:19.379Z,1.30
2018-06-30T19:07:13.990Z,1.47
2018-06-30T19:11:09.208Z,1.57
2018-06-30T19:15:08.983Z,1.57
2018-06-30T19:19:07.243Z,1.03
2018-06-30T19:23:13.228Z,1.20
2018-06-30T19:27:12.303Z,1.33
2018-06-30T19:31:14.564Z,1.30
2018-06-30T19:35:10.911Z,1.17
2018-06-30T19:39:08.012Z,1.47
2018-06-30T19:43:08.053Z,1.83
2018-06-30T19:47:02.913Z,2.07
2018-06-30T19:50:57.240Z,2.30
2018-06-30T19:54:51.533Z,2.60
2018-06-30T19:58:49.599Z,2.53
2018-06-30T20:02:44.510Z,2.00
2018-06-30T20:06:42.726Z,2.47
2018-06-30T20:10:38.242Z,2.60
2018-06-30T20:14:33.379Z,2.00
2018-06-30T20:18:29.764Z,2.13
2018-06-30T20:22:29.465Z,1.80
2018-06-30T20:26:24.218Z,2.07
2018-06-30T20:30:18.263Z,1.97
2018-06-30T20:34:12.579Z,1.70
2018-06-30T20:38:06.596Z,1.90
2018-06-30T20:42:03.683Z,1.97
2018-06-30T20:45:57.685Z,2.27
2018-06-30T20:49:51.878Z,2.57
2018-06-30T20:53:45.872Z,2.00
2018-06-30T20:57:39.909Z,2.03
2018-06-30T21:01:33.305Z,2.53
2018-06-30T21:05:27.260Z,2.17
2018-06-30T21:09:21.325Z,2.17
2018-06-30T21:13:15.315Z,2.17
2018-06-30T21:17:09.402Z,2.20
2018-06-30T21:21:03.557Z,2.00
2018-06-30T21:24:59.101Z,1.90
2018-06-30T21:28:53.257Z,2.20
2018-06-30T21:32:47.901Z,1.80
2018-06-30T21:36:41.792Z,1.40
2018-06-30T21:40:35.789Z,1.47
2018-06-30T21:44:29.714Z,1.23
2018-06-30T21:48:23.612Z,1.00
2018-06-30T21:52:17.588Z,1.30
2018-06-30T21:56:11.632Z,1.37
2018-06-30T22:00:07.583Z,0.97
2018-06-30T22:04:01.528Z,1.00
2018-06-30T22:07:55.465Z,0.80
2018-06-30T22:11:49.413Z,1.40
2018-06-30T22:15:44.245Z,1.23
2018-06-30T22:19:38.142Z,0.97
2018-06-30T22:23:32.105Z,1.20
2018-06-30T22:27:26.059Z,1.10
2018-06-30T22:31:20.211Z,1.10
2018-06-30T22:35:14.255Z,1.00
2018-06-30T22:39:12.401Z,0.88
2018-06-30T22:43:06.307Z,1.10
2018-06-30T22:47:00.218Z,1.10
2018-06-30T22:50:54.480Z,0.85
2018-06-30T22:54:48.409Z,1.10
2018-06-30T22:58:42.413Z,1.20
2018-06-30T23:02:35.913Z,1.33
2018-06-30T23:06:29.697Z,1.03
2018-06-30T23:10:23.528Z,1.30
2018-06-30T23:14:17.642Z,1.10
2018-06-30T23:18:11.648Z,1.10
2018-06-30T23:22:05.692Z,1.15
2018-06-30T23:25:59.682Z,1.30
2018-06-30T23:29:53.711Z,1.00
2018-06-30T23:33:47.899Z,1.00
2018-06-30T23:37:42.102Z,1.23
2018-06-30T23:41:36.099Z,1.30
2018-06-30T23:45:30.039Z,1.37
2018-06-30T23:49:24.951Z,1.23
2018-06-30T23:53:18.950Z,1.30
2018-06-30T23:57:15.929Z,1.10
